Time;durP1;ratioP1;P1;durP2;ratioP2;P2;SDS_P1;SDS_P2;PMS_P1;PMS_P2;Temp;Humidity;BMP_temperature;BMP_pressure;BME280_temperature;BME280_humidity;BME280_pressure;Samples;Min_cycle;Max_cycle;Signal;HPM_P1;HPM_P2
2023/09/25 00:00:44;;;;;;;7.60;4.90;;;;;;;12.47;77.13;101467.52;130790;1266;106585;-76
2023/09/25 00:04:10;;;;;;;5.90;4.30;;;;;;;12.53;77.20;101469.10;130768;1265;109852;-77
2023/09/25 00:07:16;;;;;;;6.90;5.00;;;;;;;12.55;77.38;101475.59;130812;1266;106814;-77
2023/09/25 00:10:22;;;;;;;6.70;3.80;;;;;;;12.56;77.75;101473.00;130808;1265;107887;-77
2023/09/25 00:13:28;;;;;;;5.30;4.20;;;;;;;12.60;77.76;101470.52;130810;1258;106839;-76
2023/09/25 00:16:34;;;;;;;5.90;4.10;;;;;;;12.68;77.93;101466.63;130820;1253;107949;-77
2023/09/25 00:19:41;;;;;;;6.30;4.60;;;;;;;12.74;78.04;101464.77;130795;1257;107814;-77
2023/09/25 00:22:47;;;;;;;6.70;4.10;;;;;;;12.81;78.13;101462.39;130828;1257;107297;-77
2023/09/25 00:26:00;;;;;;;6.00;4.00;;;;;;;12.87;78.32;101461.52;130819;1264;106913;-76
2023/09/25 00:29:06;;;;;;;6.10;3.50;;;;;;;12.91;78.61;101463.05;130812;1256;108267;-78
2023/09/25 00:32:12;;;;;;;4.20;3.40;;;;;;;12.96;78.95;101468.15;130831;1257;106591;-77
2023/09/25 00:35:20;;;;;;;5.80;3.50;;;;;;;13.05;79.07;101475.63;130840;1254;107747;-77
2023/09/25 00:38:25;;;;;;;5.40;3.70;;;;;;;13.12;79.12;101477.98;130844;1258;107243;-76
2023/09/25 00:41:31;;;;;;;4.90;3.10;;;;;;;13.21;79.21;101476.49;130832;1257;107882;-77
2023/09/25 00:44:36;;;;;;;4.20;3.00;;;;;;;13.29;79.24;101467.16;130791;1257;108051;-77
2023/09/25 00:47:44;;;;;;;4.30;3.10;;;;;;;13.35;79.06;101467.49;130805;1257;107814;-77
2023/09/25 00:50:49;;;;;;;4.30;3.30;;;;;;;13.40;79.21;101464.56;130645;1257;106420;-76
2023/09/25 00:53:56;;;;;;;3.90;3.00;;;;;;;13.45;79.46;101455.39;130782;1259;109111;-77
2023/09/25 00:57:03;;;;;;;3.60;2.70;;;;;;;13.50;79.51;101447.41;130822;1265;108424;-76
2023/09/25 01:00:12;;;;;;;3.80;2.70;;;;;;;13.55;79.93;101446.41;130853;1265;107014;-74
2023/09/25 01:03:18;;;;;;;5.40;3.20;;;;;;;13.62;79.47;101447.89;130626;1257;108582;-77
2023/09/25 01:06:24;;;;;;;6.80;3.30;;;;;;;13.68;79.46;101453.58;130703;1266;107816;-77
2023/09/25 01:09:30;;;;;;;4.70;3.50;;;;;;;13.71;79.56;101457.90;130817;1266;106313;-77
2023/09/25 01:12:37;;;;;;;4.80;3.00;;;;;;;13.73;79.70;101462.55;130843;1266;107474;-76
2023/09/25 01:15:43;;;;;;;4.50;3.30;;;;;;;13.74;79.84;101463.36;130790;1266;106966;-78
2023/09/25 01:18:48;;;;;;;4.60;3.20;;;;;;;13.78;79.84;101466.08;130839;1254;107724;-77
2023/09/25 01:21:54;;;;;;;5.30;3.20;;;;;;;13.84;79.58;101470.33;130796;1257;107958;-77
2023/09/25 01:24:59;;;;;;;5.70;3.00;;;;;;;13.89;79.58;101467.55;130805;1266;107612;-77
2023/09/25 01:28:06;;;;;;;5.40;3.30;;;;;;;13.92;79.64;101463.77;130799;1254;107587;-77
2023/09/25 01:31:12;;;;;;;5.90;3.30;;;;;;;13.94;79.80;101463.44;130814;1257;107555;-77
2023/09/25 01:34:17;;;;;;;6.10;3.40;;;;;;;13.93;79.78;101463.41;130794;1257;107295;-77
2023/09/25 01:37:24;;;;;;;5.80;4.00;;;;;;;13.90;79.86;101461.86;130820;1268;107168;-77
2023/09/25 01:40:30;;;;;;;5.80;3.40;;;;;;;13.88;80.11;101462.10;130781;1258;108263;-77
2023/09/25 01:43:36;;;;;;;4.60;3.10;;;;;;;13.88;80.22;101460.11;130832;1257;107616;-77
2023/09/25 01:46:42;;;;;;;4.70;3.40;;;;;;;13.91;79.92;101461.64;130816;1254;107248;-77
2023/09/25 01:49:47;;;;;;;4.80;3.20;;;;;;;13.93;79.97;101458.73;130815;1257;107749;-77
2023/09/25 01:52:56;;;;;;;4.40;3.30;;;;;;;13.96;79.91;101455.27;130702;1254;191622;-77
2023/09/25 01:56:11;;;;;;;3.90;2.90;;;;;;;13.98;79.85;101458.27;130840;1266;106386;-77
2023/09/25 01:59:17;;;;;;;4.20;2.90;;;;;;;13.99;80.00;101458.71;130716;1258;106625;-77
2023/09/25 02:02:22;;;;;;;4.80;2.60;;;;;;;13.99;80.04;101453.52;130588;1258;106926;-77
2023/09/25 02:05:28;;;;;;;3.90;2.80;;;;;;;14.01;80.21;101443.30;130781;1254;107273;-76
2023/09/25 02:08:34;;;;;;;4.10;3.00;;;;;;;14.03;80.13;101439.04;130617;1258;107461;-76
2023/09/25 02:11:39;;;;;;;3.70;2.90;;;;;;;14.05;80.09;101435.71;130776;1266;108121;-76
2023/09/25 02:14:45;;;;;;;6.30;3.20;;;;;;;14.07;80.07;101431.96;130823;1265;109178;-76
2023/09/25 02:17:50;;;;;;;4.40;3.00;;;;;;;14.06;79.86;101434.19;130656;1261;107752;-76
2023/09/25 02:20:56;;;;;;;5.40;3.50;;;;;;;14.04;80.02;101431.57;130644;1257;107770;-77
2023/09/25 02:24:02;;;;;;;4.50;2.80;;;;;;;14.01;80.29;101434.04;130805;1258;107173;-76
2023/09/25 02:27:07;;;;;;;6.10;2.70;;;;;;;14.00;80.08;101434.30;131414;1254;107486;-77
2023/09/25 02:30:14;;;;;;;4.00;2.80;;;;;;;14.00;80.21;101436.79;131014;1257;107951;-78
2023/09/25 02:33:19;;;;;;;3.80;2.90;;;;;;;14.02;80.15;101441.80;130842;1258;107006;-81
2023/09/25 02:36:25;;;;;;;5.30;2.90;;;;;;;14.06;80.25;101438.37;130801;1257;106667;-79
2023/09/25 02:39:31;;;;;;;3.70;2.80;;;;;;;14.05;80.39;101434.83;130920;1254;106724;-78
2023/09/25 02:42:37;;;;;;;5.40;3.10;;;;;;;14.04;80.31;101438.17;131237;1256;108233;-79
2023/09/25 02:45:43;;;;;;;4.10;3.00;;;;;;;14.00;80.55;101436.91;131015;1255;108148;-77
2023/09/25 02:48:49;;;;;;;3.90;2.60;;;;;;;13.94;80.60;101436.27;130843;1258;108376;-77
2023/09/25 02:51:54;;;;;;;5.00;3.10;;;;;;;13.88;80.73;101435.02;130862;1254;107262;-77
2023/09/25 02:55:00;;;;;;;3.80;2.80;;;;;;;13.83;81.01;101437.32;130887;1251;108672;-77
2023/09/25 02:58:06;;;;;;;5.30;2.70;;;;;;;13.79;80.99;101433.64;130865;1254;107582;-77
2023/09/25 03:01:11;;;;;;;3.70;2.90;;;;;;;13.78;80.85;101435.15;130838;1264;108210;-76
2023/09/25 03:04:17;;;;;;;6.30;3.10;;;;;;;13.72;80.72;101435.25;130819;1266;107039;-77
2023/09/25 03:07:22;;;;;;;4.20;2.80;;;;;;;13.66;80.99;101433.91;130884;1258;107980;-77
2023/09/25 03:10:28;;;;;;;5.40;3.10;;;;;;;13.57;81.14;101431.86;130829;1254;107002;-77
2023/09/25 03:13:34;;;;;;;4.60;2.70;;;;;;;13.47;81.15;101435.66;130861;1251;107876;-77
2023/09/25 03:16:40;;;;;;;3.60;2.70;;;;;;;13.41;81.44;101430.14;130881;1255;107326;-77
2023/09/25 03:19:45;;;;;;;4.50;3.20;;;;;;;13.37;81.92;101430.00;130872;1257;107102;-77
2023/09/25 03:22:51;;;;;;;4.90;2.80;;;;;;;13.28;82.05;101430.42;130873;1256;106839;-76
2023/09/25 03:25:56;;;;;;;4.60;3.20;;;;;;;13.23;81.92;101433.80;130870;1254;106475;-77
2023/09/25 03:29:04;;;;;;;3.50;3.20;;;;;;;13.14;82.16;101437.05;130868;1265;106701;-76
2023/09/25 03:32:10;;;;;;;5.60;3.70;;;;;;;13.03;82.12;101445.99;130849;1251;107727;-77
2023/09/25 03:35:16;;;;;;;3.80;2.90;;;;;;;12.98;82.17;101450.14;130842;1266;107144;-77
2023/09/25 03:38:21;;;;;;;5.50;2.90;;;;;;;12.93;82.24;101454.52;130872;1257;107862;-77
2023/09/25 03:41:27;;;;;;;6.00;3.00;;;;;;;12.90;82.48;101453.34;130868;1257;107589;-77
2023/09/25 03:44:33;;;;;;;5.30;2.90;;;;;;;12.88;82.43;101459.42;130871;1251;107676;-76
2023/09/25 03:47:39;;;;;;;3.80;2.90;;;;;;;12.86;82.34;101464.11;130859;1266;106802;-76
2023/09/25 03:50:44;;;;;;;3.80;2.70;;;;;;;12.84;82.42;101474.11;130893;1256;107756;-77
2023/09/25 03:53:50;;;;;;;4.90;3.10;;;;;;;12.81;82.28;101478.10;130883;1257;107937;-76
2023/09/25 03:56:55;;;;;;;4.70;3.10;;;;;;;12.79;82.54;101475.80;130878;1265;106757;-77
2023/09/25 04:00:01;;;;;;;8.00;3.40;;;;;;;12.77;82.74;101473.67;130862;1257;108698;-77
2023/09/25 04:03:17;;;;;;;3.90;3.00;;;;;;;12.72;82.77;101479.63;130892;1251;108303;-77
2023/09/25 04:06:23;;;;;;;5.20;3.50;;;;;;;12.69;82.66;101485.75;130871;1251;107361;-77
2023/09/25 04:09:29;;;;;;;4.80;3.20;;;;;;;12.67;82.56;101494.36;130865;1256;106888;-77
2023/09/25 04:12:34;;;;;;;3.50;2.90;;;;;;;12.63;82.51;101498.43;130841;1256;106586;-77
2023/09/25 04:15:40;;;;;;;4.40;3.20;;;;;;;12.58;82.62;101494.39;130861;1257;106426;-76
2023/09/25 04:18:45;;;;;;;4.80;3.40;;;;;;;12.55;82.68;101504.48;130868;1257;107896;-77
2023/09/25 04:21:52;;;;;;;3.80;3.10;;;;;;;12.54;82.79;101503.85;130888;1257;107605;-77
2023/09/25 04:24:58;;;;;;;3.80;3.20;;;;;;;12.55;82.68;101506.81;130829;1254;107663;-76
2023/09/25 04:28:05;;;;;;;6.80;3.70;;;;;;;12.52;82.67;101509.38;130898;1257;105785;-77
2023/09/25 04:31:11;;;;;;;5.40;4.20;;;;;;;12.50;82.60;101509.39;130858;1251;107676;-77
2023/09/25 04:34:16;;;;;;;4.00;3.20;;;;;;;12.45;82.55;101504.69;130860;1251;107510;-77
2023/09/25 04:37:23;;;;;;;5.90;3.60;;;;;;;12.41;82.67;101505.77;130874;1258;107190;-77
2023/09/25 04:40:31;;;;;;;5.20;3.50;;;;;;;12.41;82.94;101508.21;130877;1255;107486;-77
2023/09/25 04:43:37;;;;;;;5.30;3.10;;;;;;;12.41;82.98;101508.44;131243;1251;106436;-77
2023/09/25 04:46:42;;;;;;;5.10;3.60;;;;;;;12.40;82.82;101505.63;130876;1255;107681;-77
2023/09/25 04:49:48;;;;;;;6.10;3.70;;;;;;;12.40;82.79;101505.96;130861;1255;106440;-77
2023/09/25 04:52:54;;;;;;;6.90;4.10;;;;;;;12.40;82.99;101509.16;130876;1257;107485;-76
2023/09/25 04:55:59;;;;;;;4.70;3.30;;;;;;;12.41;83.37;101507.14;130897;1258;107218;-77
2023/09/25 04:59:06;;;;;;;5.10;3.40;;;;;;;12.44;83.62;101508.38;130864;1266;106557;-75
2023/09/25 05:02:11;;;;;;;5.50;3.80;;;;;;;12.46;83.73;101502.05;130886;1252;107002;-76
2023/09/25 05:05:18;;;;;;;4.20;3.10;;;;;;;12.51;83.79;101502.52;130891;1251;106824;-77
2023/09/25 05:08:24;;;;;;;5.60;3.30;;;;;;;12.56;83.83;101497.45;130941;1255;108507;-76
2023/09/25 05:11:29;;;;;;;5.70;3.70;;;;;;;12.61;83.86;101494.95;130885;1255;107050;-76
2023/09/25 05:14:35;;;;;;;7.00;4.30;;;;;;;12.62;83.86;101494.64;130850;1251;107582;-77
2023/09/25 05:17:42;;;;;;;4.70;3.40;;;;;;;12.64;83.96;101491.02;130847;1255;107337;-77
2023/09/25 05:20:47;;;;;;;4.90;3.80;;;;;;;12.69;83.98;101492.77;130884;1251;107853;-77
2023/09/25 05:23:53;;;;;;;5.70;3.90;;;;;;;12.75;84.22;101494.02;130874;1255;108782;-77
2023/09/25 05:26:59;;;;;;;8.70;4.70;;;;;;;12.82;84.14;101491.80;130857;1252;107794;-76
2023/09/25 05:30:09;;;;;;;7.90;4.30;;;;;;;12.88;84.16;101492.50;130883;1256;106557;-77
2023/09/25 05:33:14;;;;;;;5.40;3.70;;;;;;;12.92;84.19;101493.02;130870;1255;107850;-77
2023/09/25 05:36:20;;;;;;;4.40;3.40;;;;;;;12.96;84.04;101489.62;130850;1251;106989;-77
2023/09/25 05:39:26;;;;;;;5.20;3.50;;;;;;;13.04;84.09;101492.30;130895;1251;108588;-77
2023/09/25 05:42:31;;;;;;;5.00;3.20;;;;;;;13.13;84.00;101490.80;130885;1257;107618;-76
2023/09/25 05:45:37;;;;;;;5.80;3.30;;;;;;;13.23;84.02;101491.70;130855;1256;106914;-76
2023/09/25 05:48:44;;;;;;;4.80;3.40;;;;;;;13.29;84.00;101484.45;130908;1255;106839;-76
2023/09/25 05:51:53;;;;;;;4.40;3.50;;;;;;;13.33;84.03;101489.45;130881;1257;107411;-77
2023/09/25 05:54:58;;;;;;;3.80;3.00;;;;;;;13.40;84.17;101486.73;130867;1251;106558;-76
2023/09/25 05:58:04;;;;;;;5.40;2.40;;;;;;;13.46;84.09;101484.24;130876;1251;106329;-78
2023/09/25 06:01:10;;;;;;;5.10;3.10;;;;;;;13.52;84.18;101486.65;130898;1252;107751;-77
2023/09/25 06:04:16;;;;;;;6.10;3.30;;;;;;;13.62;84.15;101487.17;130852;1255;107497;-76
2023/09/25 06:07:22;;;;;;;3.50;3.00;;;;;;;13.71;84.13;101496.41;130831;1254;106478;-76
2023/09/25 06:10:28;;;;;;;3.90;3.10;;;;;;;13.75;84.21;101493.16;130899;1256;107234;-76
2023/09/25 06:13:34;;;;;;;4.80;3.20;;;;;;;13.82;84.07;101496.85;130892;1255;106882;-77
2023/09/25 06:16:40;;;;;;;7.90;3.40;;;;;;;13.85;83.99;101497.80;130841;1257;108630;-78
2023/09/25 06:19:45;;;;;;;4.00;2.70;;;;;;;13.88;84.12;101505.14;130835;1255;108243;-76
2023/09/25 06:22:51;;;;;;;3.90;2.90;;;;;;;13.95;84.17;101506.17;130834;1251;106672;-77
2023/09/25 06:25:57;;;;;;;4.70;3.10;;;;;;;14.05;84.07;101507.36;130909;1256;107001;-76
2023/09/25 06:29:02;;;;;;;4.90;3.50;;;;;;;14.10;83.84;101505.93;130881;1256;107768;-77
2023/09/25 06:32:08;;;;;;;4.40;3.20;;;;;;;14.13;83.83;101510.17;130894;1252;107936;-75
2023/09/25 06:35:14;;;;;;;4.60;2.80;;;;;;;14.18;83.78;101511.52;130867;1253;105859;-78
2023/09/25 06:38:19;;;;;;;4.60;2.70;;;;;;;14.20;84.13;101511.63;130848;1263;107549;-77
2023/09/25 06:41:25;;;;;;;3.80;2.30;;;;;;;14.25;83.98;101515.77;130876;1255;108513;-77
2023/09/25 06:44:31;;;;;;;4.20;2.30;;;;;;;14.34;84.32;101516.75;130892;1255;106598;-76
2023/09/25 06:47:37;;;;;;;6.60;3.30;;;;;;;14.45;84.43;101523.37;130892;1251;108551;-76
2023/09/25 06:50:43;;;;;;;4.10;2.40;;;;;;;14.56;84.20;101522.31;131095;1255;107081;-77
2023/09/25 06:53:48;;;;;;;2.70;2.50;;;;;;;14.66;83.95;101523.77;130893;1256;106223;-77
2023/09/25 06:56:54;;;;;;;5.30;2.60;;;;;;;14.72;83.83;101527.06;130883;1251;109199;-76
2023/09/25 06:59:59;;;;;;;4.70;2.70;;;;;;;14.77;83.65;101523.56;130856;1251;108659;-76
2023/09/25 07:03:06;;;;;;;3.60;2.50;;;;;;;14.85;83.76;101518.80;130890;1251;106923;-77
2023/09/25 07:06:11;;;;;;;4.60;2.40;;;;;;;14.96;83.84;101510.95;130912;1251;107484;-77
2023/09/25 07:09:17;;;;;;;3.90;2.40;;;;;;;15.08;83.55;101512.83;130871;1255;107639;-77
2023/09/25 07:12:23;;;;;;;3.80;2.30;;;;;;;15.17;83.32;101515.69;130884;1255;108533;-79
2023/09/25 07:15:30;;;;;;;3.20;2.30;;;;;;;15.26;83.42;101519.45;130899;1251;107422;-78
2023/09/25 07:18:36;;;;;;;3.10;2.10;;;;;;;15.36;83.32;101519.39;130900;1255;107863;-78
2023/09/25 07:21:41;;;;;;;3.10;2.30;;;;;;;15.43;83.42;101512.05;130902;1256;107753;-78
2023/09/25 07:24:47;;;;;;;2.80;2.00;;;;;;;15.50;83.22;101514.58;130904;1251;106919;-77
2023/09/25 07:27:53;;;;;;;3.70;1.90;;;;;;;15.60;83.29;101519.52;130960;1256;106894;-76
2023/09/25 07:31:00;;;;;;;3.60;2.50;;;;;;;15.70;83.14;101513.79;130901;1255;109279;-77
2023/09/25 07:34:06;;;;;;;5.10;2.30;;;;;;;15.83;83.00;101513.20;130965;1256;107627;-78
2023/09/25 07:37:12;;;;;;;3.90;2.20;;;;;;;15.92;82.94;101515.33;130960;1253;107768;-79
2023/09/25 07:40:21;;;;;;;3.50;2.20;;;;;;;16.01;82.84;101509.54;130837;1251;107763;-79
2023/09/25 07:43:29;;;;;;;4.90;1.90;;;;;;;16.09;82.92;101506.05;130923;1254;107503;-78
2023/09/25 07:46:38;;;;;;;3.70;2.10;;;;;;;16.14;82.73;101500.36;131062;1252;106826;-75
2023/09/25 07:49:46;;;;;;;3.20;2.10;;;;;;;16.21;82.72;101498.61;130902;1252;108462;-77
2023/09/25 07:52:54;;;;;;;2.30;2.10;;;;;;;16.28;82.70;101499.27;130793;1257;107110;-76
2023/09/25 07:56:00;;;;;;;3.40;2.30;;;;;;;16.39;82.63;101500.13;130978;1255;107654;-77
2023/09/25 07:59:05;;;;;;;3.00;2.20;;;;;;;16.52;82.58;101501.09;130972;1258;107787;-76
2023/09/25 08:02:16;;;;;;;2.60;1.80;;;;;;;16.64;82.50;101496.55;130837;1252;108432;-76
2023/09/25 08:05:22;;;;;;;2.60;1.80;;;;;;;16.75;82.50;101494.15;130896;1255;107701;-77
2023/09/25 08:08:28;;;;;;;2.70;2.10;;;;;;;16.84;82.35;101491.40;130833;1255;107797;-78
2023/09/25 08:11:34;;;;;;;2.30;1.70;;;;;;;16.92;82.31;101489.05;130853;1256;106969;-75
2023/09/25 08:14:40;;;;;;;2.80;2.00;;;;;;;17.00;82.04;101487.24;130833;1257;106501;-77
2023/09/25 08:17:47;;;;;;;2.90;2.10;;;;;;;17.10;81.82;101487.05;130870;1251;108670;-76
2023/09/25 08:20:52;;;;;;;2.50;1.80;;;;;;;17.23;81.52;101488.33;130869;1256;108681;-77
2023/09/25 08:23:59;;;;;;;2.60;1.90;;;;;;;17.38;81.55;101484.22;130857;1257;106638;-78
2023/09/25 08:27:05;;;;;;;3.00;2.00;;;;;;;17.49;81.09;101484.23;130891;1255;106839;-76
2023/09/25 08:30:16;;;;;;;2.20;1.70;;;;;;;17.58;80.50;101486.86;130886;1255;107874;-78
2023/09/25 08:33:21;;;;;;;2.80;2.00;;;;;;;17.66;80.29;101490.43;130898;1255;107475;-75
2023/09/25 08:36:27;;;;;;;2.50;2.20;;;;;;;17.75;80.15;101492.89;130859;1253;106711;-77
2023/09/25 08:39:33;;;;;;;2.50;2.00;;;;;;;17.85;79.88;101494.52;130853;1255;108250;-77
2023/09/25 08:42:38;;;;;;;2.70;2.00;;;;;;;17.90;79.41;101491.87;130850;1256;106949;-77
2023/09/25 08:45:45;;;;;;;2.10;1.80;;;;;;;17.95;79.10;101490.56;130850;1267;106382;-76
2023/09/25 08:48:56;;;;;;;2.10;1.90;;;;;;;18.02;79.32;101487.56;130967;1255;107006;-77
2023/09/25 08:52:02;;;;;;;5.30;2.10;;;;;;;18.15;79.35;101491.14;130840;1253;107744;-77
2023/09/25 08:55:09;;;;;;;3.10;2.40;;;;;;;18.23;78.75;101487.40;130850;1252;108752;-77
2023/09/25 08:58:16;;;;;;;2.90;2.00;;;;;;;18.32;78.53;101488.02;130861;1255;106498;-77
2023/09/25 09:01:23;;;;;;;3.20;2.00;;;;;;;18.38;78.11;101487.70;130895;1254;107567;-76
2023/09/25 09:04:28;;;;;;;2.80;2.20;;;;;;;18.42;78.14;101481.22;130927;1256;106745;-77
2023/09/25 09:07:34;;;;;;;3.30;2.30;;;;;;;18.49;78.05;101479.41;130859;1255;107443;-78
2023/09/25 09:10:40;;;;;;;4.20;2.50;;;;;;;18.53;78.11;101475.34;130935;1251;107771;-77
2023/09/25 09:13:47;;;;;;;3.30;2.20;;;;;;;18.58;78.04;101473.91;130873;1257;106740;-77
2023/09/25 09:16:59;;;;;;;3.90;2.40;;;;;;;18.68;77.61;101468.73;130957;1255;106791;-76
2023/09/25 09:20:06;;;;;;;3.00;2.40;;;;;;;18.79;77.24;101472.55;130896;1255;107686;-76
2023/09/25 09:23:12;;;;;;;3.70;2.40;;;;;;;18.92;76.61;101475.10;130831;1253;106712;-76
2023/09/25 09:26:19;;;;;;;2.90;2.20;;;;;;;19.02;76.65;101474.48;130714;1255;107698;-76
2023/09/25 09:29:25;;;;;;;2.70;2.30;;;;;;;19.11;76.75;101467.10;130816;1255;108300;-78
2023/09/25 09:32:30;;;;;;;3.10;2.10;;;;;;;19.18;76.32;101469.29;130658;1255;108736;-77
2023/09/25 09:35:36;;;;;;;3.50;1.90;;;;;;;19.22;75.97;101470.05;130876;1255;108541;-78
2023/09/25 09:38:43;;;;;;;3.80;2.10;;;;;;;19.26;76.14;101463.92;130844;1255;108876;-77
2023/09/25 09:41:50;;;;;;;2.30;2.10;;;;;;;19.32;75.98;101462.41;130908;1254;108898;-76
2023/09/25 09:44:56;;;;;;;2.30;1.90;;;;;;;19.36;75.97;101457.14;130895;1251;107442;-76
2023/09/25 09:48:03;;;;;;;3.20;2.20;;;;;;;19.35;75.85;101456.51;130869;1255;107692;-77
2023/09/25 09:51:12;;;;;;;2.80;2.00;;;;;;;19.25;75.79;101455.66;130855;1252;107678;-77
2023/09/25 09:54:21;;;;;;;2.50;2.10;;;;;;;19.12;75.43;101457.80;130854;1251;108317;-77
2023/09/25 09:57:27;;;;;;;3.40;2.30;;;;;;;18.98;75.30;101459.55;130907;1255;106581;-76
2023/09/25 10:00:32;;;;;;;2.60;2.40;;;;;;;18.89;75.35;101462.45;130868;1255;108575;-76
2023/09/25 10:03:38;;;;;;;4.70;2.20;;;;;;;18.83;75.22;101465.63;130867;1255;107689;-77
2023/09/25 10:06:51;;;;;;;3.40;2.10;;;;;;;18.83;75.35;101461.87;130853;1255;108469;-76
2023/09/25 10:09:58;;;;;;;2.90;1.70;;;;;;;18.89;75.16;101463.16;130878;1251;108530;-76
2023/09/25 10:13:07;;;;;;;2.20;2.00;;;;;;;19.01;75.51;101462.27;130922;1255;107007;-77
2023/09/25 10:16:15;;;;;;;3.40;2.10;;;;;;;19.19;75.14;101457.11;130872;1255;107709;-77
2023/09/25 10:19:23;;;;;;;4.00;2.30;;;;;;;19.43;74.74;101449.99;130880;1252;107890;-77
2023/09/25 10:22:30;;;;;;;2.30;2.00;;;;;;;19.76;74.57;101452.38;130880;1258;107733;-76
2023/09/25 10:25:47;;;;;;;2.70;1.90;;;;;;;20.08;74.30;101448.57;130867;1255;106944;-77
2023/09/25 10:29:16;;;;;;;2.50;2.10;;;;;;;20.38;73.69;101451.89;130879;1255;108455;-76
2023/09/25 10:32:33;;;;;;;2.80;1.90;;;;;;;20.53;73.38;101447.61;130893;1255;107078;-76
2023/09/25 10:35:42;;;;;;;2.10;1.90;;;;;;;20.59;73.13;101437.45;130870;1256;107049;-77
2023/09/25 10:38:54;;;;;;;2.60;2.10;;;;;;;20.64;72.97;101436.31;130927;1255;107741;-76
2023/09/25 10:42:07;;;;;;;2.70;2.00;;;;;;;20.70;72.29;101431.54;130894;1255;107721;-77
2023/09/25 10:45:13;;;;;;;2.90;1.90;;;;;;;20.85;72.49;101423.36;130863;1255;107013;-77
2023/09/25 10:48:18;;;;;;;2.20;1.90;;;;;;;20.97;71.82;101413.30;130864;1255;107759;-76
2023/09/25 10:51:24;;;;;;;2.30;1.70;;;;;;;21.06;72.07;101411.55;130872;1254;107137;-78
2023/09/25 10:54:30;;;;;;;2.40;1.90;;;;;;;21.20;70.82;101411.59;130879;1255;106920;-78
2023/09/25 10:57:35;;;;;;;2.00;1.90;;;;;;;21.31;71.33;101408.69;130867;1255;107121;-78
2023/09/25 11:00:43;;;;;;;2.00;1.80;;;;;;;21.42;70.71;101410.08;130885;1254;106771;-75
2023/09/25 11:03:49;;;;;;;3.00;1.80;;;;;;;21.54;70.39;101403.76;130859;1252;106428;-75
2023/09/25 11:06:55;;;;;;;1.90;1.60;;;;;;;21.61;69.34;101401.48;130857;1255;107343;-76
2023/09/25 11:10:01;;;;;;;2.00;1.70;;;;;;;21.65;68.99;101402.34;130903;1255;107048;-75
2023/09/25 11:13:08;;;;;;;2.00;1.80;;;;;;;21.65;68.67;101398.20;130885;1255;107688;-76
2023/09/25 11:16:14;;;;;;;2.90;1.80;;;;;;;21.64;68.75;101393.29;130900;1251;105828;-76
2023/09/25 11:19:20;;;;;;;3.40;1.90;;;;;;;21.59;68.68;101390.52;130891;1251;105749;-76
2023/09/25 11:22:28;;;;;;;1.90;1.50;;;;;;;21.54;68.11;101400.30;130878;1254;106891;-76
2023/09/25 11:25:41;;;;;;;2.30;1.80;;;;;;;21.45;67.36;101397.13;130893;1253;108335;-78
2023/09/25 11:28:54;;;;;;;1.90;1.70;;;;;;;21.32;66.56;101388.48;130914;1254;105810;-76
2023/09/25 11:32:00;;;;;;;2.80;2.10;;;;;;;21.16;67.23;101389.39;130873;1254;107489;-76
2023/09/25 11:35:08;;;;;;;2.30;1.90;;;;;;;21.07;66.84;101383.30;130908;1264;107716;-76
2023/09/25 11:38:17;;;;;;;3.00;2.10;;;;;;;21.03;66.65;101384.05;130905;1255;107062;-78
2023/09/25 11:41:23;;;;;;;2.00;1.80;;;;;;;21.02;67.00;101379.04;130915;1253;107709;-76
2023/09/25 11:44:28;;;;;;;1.90;1.70;;;;;;;21.05;66.80;101367.41;130853;1255;107058;-76
2023/09/25 11:47:34;;;;;;;2.60;1.90;;;;;;;21.10;66.29;101366.62;130832;1256;108014;-76
2023/09/25 11:50:40;;;;;;;2.10;1.70;;;;;;;21.10;66.12;101367.91;130874;1253;107988;-75
2023/09/25 11:53:46;;;;;;;2.20;2.00;;;;;;;21.10;66.35;101366.15;130850;1255;107368;-76
2023/09/25 11:56:51;;;;;;;3.10;2.10;;;;;;;21.13;66.44;101362.67;130853;1254;106898;-76
2023/09/25 11:59:57;;;;;;;1.90;1.70;;;;;;;21.11;66.22;101361.45;130848;1254;107582;-76
2023/09/25 12:03:04;;;;;;;3.20;1.90;;;;;;;21.10;66.18;101362.52;130827;1254;106976;-77
2023/09/25 12:06:10;;;;;;;2.80;2.00;;;;;;;21.10;65.91;101362.56;130878;1254;108751;-77
2023/09/25 12:09:16;;;;;;;1.90;1.70;;;;;;;21.10;65.97;101360.14;130847;1251;106764;-77
2023/09/25 12:12:23;;;;;;;2.00;1.80;;;;;;;21.09;65.75;101364.18;130858;1256;107250;-77
2023/09/25 12:15:29;;;;;;;3.70;1.80;;;;;;;21.08;65.51;101359.08;130844;1255;108748;-76
2023/09/25 12:18:34;;;;;;;2.10;1.90;;;;;;;21.07;65.36;101355.15;130878;1253;108269;-76
2023/09/25 12:21:40;;;;;;;1.90;1.70;;;;;;;21.07;64.98;101358.02;130840;1255;108718;-77
2023/09/25 12:24:45;;;;;;;3.50;1.80;;;;;;;21.04;64.59;101352.41;130834;1255;107776;-77
2023/09/25 12:27:51;;;;;;;2.50;1.80;;;;;;;21.01;64.40;101349.35;130844;1258;106958;-77
2023/09/25 12:30:57;;;;;;;1.70;1.60;;;;;;;20.99;64.54;101348.73;130833;1251;107942;-78
2023/09/25 12:34:02;;;;;;;1.90;1.70;;;;;;;20.98;64.39;101349.20;130867;1256;107876;-76
2023/09/25 12:37:08;;;;;;;3.50;1.80;;;;;;;20.97;64.56;101348.55;130840;1255;106753;-75
2023/09/25 12:40:15;;;;;;;2.20;1.90;;;;;;;20.98;64.74;101345.39;130839;1255;106393;-75
2023/09/25 12:43:21;;;;;;;1.90;1.80;;;;;;;20.99;64.69;101341.39;130875;1251;106413;-76
2023/09/25 12:46:26;;;;;;;1.90;1.70;;;;;;;20.99;64.54;101341.38;130847;1256;107715;-75
2023/09/25 12:49:32;;;;;;;1.70;1.60;;;;;;;20.98;64.34;101341.71;130849;1255;108247;-75
2023/09/25 12:52:38;;;;;;;2.00;1.80;;;;;;;20.98;64.25;101337.08;130861;1255;107991;-76
2023/09/25 12:55:44;;;;;;;4.10;3.70;;;;;;;21.01;63.95;101339.45;130837;1256;107233;-75
2023/09/25 12:58:51;;;;;;;3.00;2.60;;;;;;;21.00;63.91;101341.15;130816;1255;107835;-76
2023/09/25 13:01:56;;;;;;;3.70;2.10;;;;;;;21.01;64.19;101336.92;130806;1255;108129;-76
2023/09/25 13:05:02;;;;;;;2.70;1.80;;;;;;;21.03;63.82;101338.79;130836;1255;107548;-76
2023/09/25 13:08:08;;;;;;;3.10;2.50;;;;;;;21.04;63.36;101330.91;130882;1255;107673;-76
2023/09/25 13:11:14;;;;;;;2.90;2.20;;;;;;;21.04;63.20;101335.46;130836;1255;106522;-75
2023/09/25 13:14:20;;;;;;;2.90;2.60;;;;;;;21.03;63.26;101328.90;130867;1255;107333;-76
2023/09/25 13:17:25;;;;;;;3.70;2.20;;;;;;;21.02;63.26;101332.73;130845;1253;107736;-75
2023/09/25 13:20:32;;;;;;;3.60;2.00;;;;;;;21.03;63.10;101327.09;130835;1254;106374;-77
2023/09/25 13:23:38;;;;;;;3.20;1.70;;;;;;;21.03;62.86;101318.84;130852;1254;105552;-76
2023/09/25 13:26:43;;;;;;;2.50;1.70;;;;;;;21.05;62.85;101321.73;130889;1256;107948;-75
2023/09/25 13:29:49;;;;;;;2.70;1.90;;;;;;;21.05;62.55;101324.73;130871;1251;106871;-75
2023/09/25 13:32:54;;;;;;;1.70;1.60;;;;;;;21.05;62.62;101331.12;130841;1255;108708;-76
2023/09/25 13:36:00;;;;;;;1.80;1.60;;;;;;;21.05;62.54;101323.28;130808;1255;106798;-76
2023/09/25 13:39:06;;;;;;;2.50;2.30;;;;;;;21.07;62.52;101317.33;130859;1255;107731;-76
2023/09/25 13:42:11;;;;;;;4.00;2.10;;;;;;;21.06;62.11;101313.48;130816;1254;106867;-76
2023/09/25 13:45:17;;;;;;;2.90;2.00;;;;;;;21.04;62.24;101311.52;130819;1255;107578;-77
2023/09/25 13:48:23;;;;;;;2.20;1.80;;;;;;;21.04;62.45;101316.55;130836;1256;106795;-76
2023/09/25 13:51:28;;;;;;;1.90;1.70;;;;;;;21.05;62.16;101320.27;130722;1255;189454;-77
2023/09/25 13:54:34;;;;;;;3.50;1.80;;;;;;;21.05;62.21;101320.64;130826;1255;108577;-76
2023/09/25 13:57:40;;;;;;;2.80;1.80;;;;;;;21.04;61.85;101321.81;130847;1255;108397;-76
2023/09/25 14:00:47;;;;;;;3.00;2.30;;;;;;;21.04;62.04;101319.55;130795;1255;106400;-77
2023/09/25 14:03:53;;;;;;;2.70;2.10;;;;;;;21.03;61.95;101316.30;130821;1252;108462;-76
2023/09/25 14:06:58;;;;;;;2.90;1.90;;;;;;;21.01;62.00;101308.85;130848;1252;107532;-77